^^
Saratoga-Weather Station Historical Data
Daily Summary for August 29, 2021 Units:  Both    English   Metric
Daily Weekly Monthly Yearly Custom
  High: Low: Average:
Temperature: 72.7 °F /  22.6 °C 58.5 °F /  14.7 °C 64.6 °F /  18.1 °C
Dew Point: 57.4 °F /  14.1 °C 52.7 °F /  11.5 °C 55.2 °F /  12.9 °C
Humidity: 90% 52% 73%
Wind Speed: 8.9mph /  14.3km/h - 1.7mph /  2.8km/h
Wind Gust: 15mph /  24.1km/h - -
Wind- - WSW
Pressure: 30 in /  1014.6 hPa 29.9 in /  1011.9 hPa -
Precipitation: 0 in /  0.0 mm    
Historical Graphs
 
 
Tabular Data for August 29, 2021
Time Temperature Dew Point Pressure Wind Wind Speed Wind Gust Humidity Rainfall Rate (Hourly) solar
00:01 59.2 °F /  15.1 °C 55.6 °F /  13.1 °C 29.9in /  1012.9hPa Calm     88% 0in /  0.0mm 0 W/m2
00:06 59.2 °F /  15.1 °C 55.9 °F /  13.3 °C 29.9in /  1012.9hPa ENE 0.9mph /  1.4km/h 1mph /  1.6km/h 89% 0in /  0.0mm 0 W/m2
00:11 59.2 °F /  15.1 °C 55.9 °F /  13.3 °C 29.9in /  1012.9hPa Calm   2mph /  3.2km/h 89% 0in /  0.0mm 0 W/m2
00:16 59.2 °F /  15.1 °C 55.9 °F /  13.3 °C 29.9in /  1012.9hPa Calm   1mph /  1.6km/h 89% 0in /  0.0mm 0 W/m2
00:21 59.2 °F /  15.1 °C 56.3 °F /  13.5 °C 29.9in /  1012.9hPa Calm   1mph /  1.6km/h 90% 0in /  0.0mm 0 W/m2
00:26 59.2 °F /  15.1 °C 55.9 °F /  13.3 °C 29.9in /  1012.9hPa ENE 0.9mph /  1.4km/h 2mph /  3.2km/h 89% 0in /  0.0mm 0 W/m2
00:31 59.4 °F /  15.2 °C 56.5 °F /  13.6 °C 29.9in /  1012.9hPa Calm   1mph /  1.6km/h 90% 0in /  0.0mm 0 W/m2
00:36 59.4 °F /  15.2 °C 56.1 °F /  13.4 °C 29.9in /  1012.9hPa SSE 2mph /  3.2km/h 2mph /  3.2km/h 89% 0in /  0.0mm 0 W/m2
00:41 59.5 °F /  15.3 °C 56.3 °F /  13.5 °C 29.9in /  1012.9hPa Calm   2mph /  3.2km/h 89% 0in /  0.0mm 0 W/m2
00:59 60.3 °F /  15.7 °C 56.3 °F /  13.5 °C 29.9in /  1012.5hPa Calm     87% 0in /  0.0mm 0 W/m2
01:04 60.3 °F /  15.7 °C 56.1 °F /  13.4 °C 29.9in /  1012.5hPa Calm   2mph /  3.2km/h 86% 0in /  0.0mm 0 W/m2
01:10 60.6 °F /  15.9 °C 56.1 °F /  13.4 °C 29.9in /  1012.5hPa Calm   1mph /  1.6km/h 85% 0in /  0.0mm 0 W/m2
01:15 61 °F /  16.1 °C 56.8 °F /  13.8 °C 29.9in /  1012.5hPa Calm   2mph /  3.2km/h 86% 0in /  0.0mm 0 W/m2
01:20 61 °F /  16.1 °C 55.8 °F /  13.2 °C 29.9in /  1012.5hPa Calm   3mph /  4.8km/h 83% 0in /  0.0mm 0 W/m2
01:25 61.2 °F /  16.2 °C 55.6 °F /  13.1 °C 29.9in /  1012.5hPa Calm   2mph /  3.2km/h 82% 0in /  0.0mm 0 W/m2
01:42 62.1 °F /  16.7 °C 55.8 °F /  13.2 °C 29.9in /  1012.5hPa East 0.9mph /  1.4km/h 2mph /  3.2km/h 80% 0in /  0.0mm 0 W/m2
01:47 62.6 °F /  17 °C 55.6 °F /  13.1 °C 29.9in /  1012.5hPa North 0.9mph /  1.4km/h 3mph /  4.8km/h 78% 0in /  0.0mm 0 W/m2
01:52 63 °F /  17.2 °C 55.9 °F /  13.3 °C 29.9in /  1012.5hPa NNW 2mph /  3.2km/h 3mph /  4.8km/h 78% 0in /  0.0mm 0 W/m2
01:57 63.1 °F /  17.3 °C 55.8 °F /  13.2 °C 29.9in /  1012.5hPa NW 0.9mph /  1.4km/h 2mph /  3.2km/h 77% 0in /  0.0mm 0 W/m2
02:02 63.3 °F /  17.4 °C 55.6 °F /  13.1 °C 29.9in /  1012.5hPa SE 0.9mph /  1.4km/h 3mph /  4.8km/h 76% 0in /  0.0mm 0 W/m2
02:22 63.3 °F /  17.4 °C 55.6 °F /  13.1 °C 29.9in /  1012.5hPa WSW 0.9mph /  1.4km/h 3mph /  4.8km/h 76% 0in /  0.0mm 0 W/m2
02:27 63.1 °F /  17.3 °C 55.8 °F /  13.2 °C 29.9in /  1012.5hPa WNW 2.9mph /  4.7km/h 3mph /  4.8km/h 77% 0in /  0.0mm 0 W/m2
02:32 63 °F /  17.2 °C 55.6 °F /  13.1 °C 29.9in /  1012.5hPa West 2mph /  3.2km/h 6mph /  9.7km/h 77% 0in /  0.0mm 0 W/m2
02:37 62.8 °F /  17.1 °C 55.8 °F /  13.2 °C 29.9in /  1012.5hPa NNW 0.9mph /  1.4km/h 3mph /  4.8km/h 78% 0in /  0.0mm 0 W/m2
02:42 62.4 °F /  16.9 °C 55.4 °F /  13 °C 29.9in /  1012.5hPa Calm   3mph /  4.8km/h 78% 0in /  0.0mm 0 W/m2
02:47 62.2 °F /  16.8 °C 55.6 °F /  13.1 °C 29.9in /  1012.5hPa North 0.9mph /  1.4km/h 2mph /  3.2km/h 79% 0in /  0.0mm 0 W/m2
02:52 62.1 °F /  16.7 °C 55.4 °F /  13 °C 29.9in /  1012.5hPa NNE 2mph /  3.2km/h 2mph /  3.2km/h 79% 0in /  0.0mm 0 W/m2
02:57 61.9 °F /  16.6 °C 55.2 °F /  12.9 °C 29.9in /  1012.5hPa WNW 0.9mph /  1.4km/h 4mph /  6.4km/h 79% 0in /  0.0mm 0 W/m2
03:02 61.7 °F /  16.5 °C 55.4 °F /  13 °C 29.9in /  1012.5hPa North 2mph /  3.2km/h 3mph /  4.8km/h 80% 0in /  0.0mm 0 W/m2
03:07 61.5 °F /  16.4 °C 55.2 °F /  12.9 °C 29.9in /  1012.2hPa NE 0.9mph /  1.4km/h 3mph /  4.8km/h 80% 0in /  0.0mm 0 W/m2
03:12 61.5 °F /  16.4 °C 55.2 °F /  12.9 °C 29.9in /  1012.2hPa Calm   2mph /  3.2km/h 80% 0in /  0.0mm 0 W/m2
03:17 61.5 °F /  16.4 °C 55.2 °F /  12.9 °C 29.9in /  1012.2hPa Calm   3mph /  4.8km/h 80% 0in /  0.0mm 0 W/m2
03:22 61.3 °F /  16.3 °C 55.4 °F /  13 °C 29.9in /  1012.2hPa West 0.9mph /  1.4km/h 1mph /  1.6km/h 81% 0in /  0.0mm 0 W/m2
03:27 61.3 °F /  16.3 °C 55.4 °F /  13 °C 29.9in /  1012.2hPa NNW 2mph /  3.2km/h 3mph /  4.8km/h 81% 0in /  0.0mm 0 W/m2
03:32 61.2 °F /  16.2 °C 55.2 °F /  12.9 °C 29.9in /  1012.2hPa WNW 4mph /  6.4km/h 4mph /  6.4km/h 81% 0in /  0.0mm 0 W/m2
03:37 61.2 °F /  16.2 °C 55.6 °F /  13.1 °C 29.9in /  1012.2hPa WSW 0.9mph /  1.4km/h 1mph /  1.6km/h 82% 0in /  0.0mm 0 W/m2
03:42 61.2 °F /  16.2 °C 55.6 °F /  13.1 °C 29.9in /  1012.2hPa Calm   2mph /  3.2km/h 82% 0in /  0.0mm 0 W/m2
03:47 61 °F /  16.1 °C 55.4 °F /  13 °C 29.9in /  1012.2hPa Calm   3mph /  4.8km/h 82% 0in /  0.0mm 0 W/m2
03:52 61.2 °F /  16.2 °C 55.6 °F /  13.1 °C 29.9in /  1012.2hPa Calm     82% 0in /  0.0mm 0 W/m2
03:57 61 °F /  16.1 °C 55.4 °F /  13 °C 29.9in /  1012.2hPa WNW 0.9mph /  1.4km/h 2mph /  3.2km/h 82% 0in /  0.0mm 0 W/m2
04:02 61 °F /  16.1 °C 55.4 °F /  13 °C 29.9in /  1012.2hPa WSW 2mph /  3.2km/h 4mph /  6.4km/h 82% 0in /  0.0mm 0 W/m2
04:07 61.2 °F /  16.2 °C 55.6 °F /  13.1 °C 29.9in /  1012.2hPa Calm   2mph /  3.2km/h 82% 0in /  0.0mm 0 W/m2
04:12 61.2 °F /  16.2 °C 55.6 °F /  13.1 °C 29.9in /  1012.2hPa Calm   2mph /  3.2km/h 82% 0in /  0.0mm 0 W/m2
04:17 61.2 °F /  16.2 °C 55.6 °F /  13.1 °C 29.9in /  1012.2hPa Calm   2mph /  3.2km/h 82% 0in /  0.0mm 0 W/m2
04:22 61 °F /  16.1 °C 55.4 °F /  13 °C 29.9in /  1012.5hPa Calm   2mph /  3.2km/h 82% 0in /  0.0mm 0 W/m2
04:27 61 °F /  16.1 °C 55.4 °F /  13 °C 29.9in /  1012.5hPa North 2mph /  3.2km/h 3mph /  4.8km/h 82% 0in /  0.0mm 0 W/m2
04:32 61 °F /  16.1 °C 55.4 °F /  13 °C 29.9in /  1012.5hPa NE 0.9mph /  1.4km/h 3mph /  4.8km/h 82% 0in /  0.0mm 0 W/m2
04:37 61 °F /  16.1 °C 55.4 °F /  13 °C 29.9in /  1012.5hPa Calm   3mph /  4.8km/h 82% 0in /  0.0mm 0 W/m2
04:55 61.2 °F /  16.2 °C 55.6 °F /  13.1 °C 29.9in /  1012.5hPa NNE 0.9mph /  1.4km/h 2mph /  3.2km/h 82% 0in /  0.0mm 0 W/m2
05:00 61.2 °F /  16.2 °C 55.6 °F /  13.1 °C 29.9in /  1012.5hPa NNE 0.9mph /  1.4km/h 8mph /  12.9km/h 82% 0in /  0.0mm 0 W/m2
05:05 61.2 °F /  16.2 °C 55.6 °F /  13.1 °C 29.9in /  1012.5hPa NW 2mph /  3.2km/h 3mph /  4.8km/h 82% 0in /  0.0mm 0 W/m2
05:10 61 °F /  16.1 °C 55.4 °F /  13 °C 29.9in /  1012.9hPa ENE 0.9mph /  1.4km/h 8mph /  12.9km/h 82% 0in /  0.0mm 0 W/m2
05:15 60.8 °F /  16 °C 55.2 °F /  12.9 °C 29.9in /  1012.9hPa WNW 2mph /  3.2km/h 2mph /  3.2km/h 82% 0in /  0.0mm 0 W/m2
05:20 60.6 °F /  15.9 °C 55 °F /  12.8 °C 29.9in /  1012.9hPa SSW 0.9mph /  1.4km/h 4mph /  6.4km/h 82% 0in /  0.0mm 0 W/m2
05:25 60.6 °F /  15.9 °C 55 °F /  12.8 °C 29.9in /  1012.9hPa SW 0.9mph /  1.4km/h 1mph /  1.6km/h 82% 0in /  0.0mm 0 W/m2
05:30 60.4 °F /  15.8 °C 54.9 °F /  12.7 °C 29.9in /  1012.9hPa Calm   4mph /  6.4km/h 82% 0in /  0.0mm 0 W/m2
05:35 60.3 °F /  15.7 °C 55 °F /  12.8 °C 29.9in /  1012.9hPa ENE 0.9mph /  1.4km/h 1mph /  1.6km/h 83% 0in /  0.0mm 0 W/m2
05:40 60.1 °F /  15.6 °C 54.9 °F /  12.7 °C 29.9in /  1012.9hPa ESE 0.9mph /  1.4km/h 3mph /  4.8km/h 83% 0in /  0.0mm 0 W/m2
05:45 59.7 °F /  15.4 °C 54.9 °F /  12.7 °C 29.9in /  1012.9hPa ESE 0.9mph /  1.4km/h 2mph /  3.2km/h 84% 0in /  0.0mm 0 W/m2
05:50 59.5 °F /  15.3 °C 54.7 °F /  12.6 °C 29.9in /  1012.9hPa ESE 0.9mph /  1.4km/h 3mph /  4.8km/h 84% 0in /  0.0mm 0 W/m2
05:55 59.4 °F /  15.2 °C 54.9 °F /  12.7 °C 29.9in /  1012.9hPa East 0.9mph /  1.4km/h 2mph /  3.2km/h 85% 0in /  0.0mm 0 W/m2
06:00 59.2 °F /  15.1 °C 54.7 °F /  12.6 °C 29.9in /  1012.9hPa Calm     85% 0in /  0.0mm 0 W/m2
06:19 58.5 °F /  14.7 °C 54.3 °F /  12.4 °C 29.9in /  1012.9hPa ESE 2mph /  3.2km/h 3mph /  4.8km/h 86% 0in /  0.0mm 9 W/m2
06:24 58.5 °F /  14.7 °C 54.3 °F /  12.4 °C 29.9in /  1012.9hPa Calm     86% 0in /  0.0mm 11 W/m2
06:29 58.5 °F /  14.7 °C 54.3 °F /  12.4 °C 29.9in /  1013.2hPa Calm   1mph /  1.6km/h 86% 0in /  0.0mm 14 W/m2
06:34 58.5 °F /  14.7 °C 54 °F /  12.2 °C 29.9in /  1012.9hPa Calm   2mph /  3.2km/h 85% 0in /  0.0mm 16 W/m2
06:39 58.5 °F /  14.7 °C 54 °F /  12.2 °C 29.9in /  1012.9hPa SW 0.9mph /  1.4km/h 4mph /  6.4km/h 85% 0in /  0.0mm 19 W/m2
06:44 58.5 °F /  14.7 °C 54 °F /  12.2 °C 29.9in /  1013.2hPa NE 0.9mph /  1.4km/h 2mph /  3.2km/h 85% 0in /  0.0mm 21 W/m2
06:49 58.5 °F /  14.7 °C 54 °F /  12.2 °C 29.9in /  1013.2hPa Calm   2mph /  3.2km/h 85% 0in /  0.0mm 23 W/m2
06:54 58.6 °F /  14.8 °C 53.8 °F /  12.1 °C 29.9in /  1013.2hPa Calm   2mph /  3.2km/h 84% 0in /  0.0mm 25 W/m2
06:59 58.6 °F /  14.8 °C 53.8 °F /  12.1 °C 29.9in /  1013.2hPa WNW 0.9mph /  1.4km/h 2mph /  3.2km/h 84% 0in /  0.0mm 26 W/m2
07:20 59 °F /  15 °C 54.1 °F /  12.3 °C 29.9in /  1013.2hPa ESE 2.9mph /  4.7km/h 3mph /  4.8km/h 84% 0in /  0.0mm 33 W/m2
07:25 59.2 °F /  15.1 °C 54.3 °F /  12.4 °C 29.9in /  1013.2hPa SW 0.9mph /  1.4km/h 2mph /  3.2km/h 84% 0in /  0.0mm 33 W/m2
07:30 59.2 °F /  15.1 °C 54 °F /  12.2 °C 29.9in /  1013.2hPa SW 2mph /  3.2km/h 2mph /  3.2km/h 83% 0in /  0.0mm 35 W/m2
07:35 59.4 °F /  15.2 °C 54.1 °F /  12.3 °C 29.9in /  1013.5hPa NNW 0.9mph /  1.4km/h 6mph /  9.7km/h 83% 0in /  0.0mm 35 W/m2
07:40 59.4 °F /  15.2 °C 54.1 °F /  12.3 °C 29.9in /  1013.5hPa North 2.9mph /  4.7km/h 4mph /  6.4km/h 83% 0in /  0.0mm 37 W/m2
07:56 59.5 °F /  15.3 °C 54.3 °F /  12.4 °C 29.9in /  1013.5hPa NE 0.9mph /  1.4km/h 1mph /  1.6km/h 83% 0in /  0.0mm 46 W/m2
08:01 59.7 °F /  15.4 °C 54.5 °F /  12.5 °C 29.9in /  1013.5hPa West 2.9mph /  4.7km/h 3mph /  4.8km/h 83% 0in /  0.0mm 58 W/m2
08:07 60.1 °F /  15.6 °C 54.9 °F /  12.7 °C 29.9in /  1013.5hPa West 0.9mph /  1.4km/h 6mph /  9.7km/h 83% 0in /  0.0mm 42 W/m2
08:12 60.1 °F /  15.6 °C 54.5 °F /  12.5 °C 29.9in /  1013.5hPa Calm   2mph /  3.2km/h 82% 0in /  0.0mm 44 W/m2
08:17 60.4 °F /  15.8 °C 54.9 °F /  12.7 °C 29.9in /  1013.5hPa NNE 2mph /  3.2km/h 6mph /  9.7km/h 82% 0in /  0.0mm 47 W/m2
08:22 60.6 °F /  15.9 °C 55 °F /  12.8 °C 29.9in /  1013.5hPa West 6.9mph /  11.1km/h 9mph /  14.5km/h 82% 0in /  0.0mm 49 W/m2
08:27 60.8 °F /  16 °C 54.9 °F /  12.7 °C 29.9in /  1013.5hPa SW 0.9mph /  1.4km/h 8mph /  12.9km/h 81% 0in /  0.0mm 56 W/m2
08:32 61 °F /  16.1 °C 55 °F /  12.8 °C 29.9in /  1013.5hPa Calm   5mph /  8km/h 81% 0in /  0.0mm 84 W/m2
08:37 61.2 °F /  16.2 °C 55.2 °F /  12.9 °C 29.9in /  1013.5hPa NW 2.9mph /  4.7km/h 4mph /  6.4km/h 81% 0in /  0.0mm 86 W/m2
08:42 61.2 °F /  16.2 °C 55.2 °F /  12.9 °C 29.9in /  1013.9hPa NW 2.9mph /  4.7km/h 6mph /  9.7km/h 81% 0in /  0.0mm 109 W/m2
08:47 61 °F /  16.1 °C 55 °F /  12.8 °C 29.9in /  1013.9hPa NNW 2mph /  3.2km/h 3mph /  4.8km/h 81% 0in /  0.0mm 72 W/m2
08:52 61 °F /  16.1 °C 55 °F /  12.8 °C 29.9in /  1013.9hPa NW 2.9mph /  4.7km/h 8mph /  12.9km/h 81% 0in /  0.0mm 107 W/m2
08:57 61 °F /  16.1 °C 55.4 °F /  13 °C 29.9in /  1013.9hPa NW 0.9mph /  1.4km/h 3mph /  4.8km/h 82% 0in /  0.0mm 165 W/m2
09:14 61.3 °F /  16.3 °C 55.4 °F /  13 °C 30in /  1014.2hPa NNW 6mph /  9.7km/h 7mph /  11.3km/h 81% 0in /  0.0mm 183 W/m2
09:19 61.5 °F /  16.4 °C 55.6 °F /  13.1 °C 30in /  1014.2hPa West 2mph /  3.2km/h 4mph /  6.4km/h 81% 0in /  0.0mm 197 W/m2
09:24 61.5 °F /  16.4 °C 55.6 °F /  13.1 °C 30in /  1014.2hPa NW 0.9mph /  1.4km/h 7mph /  11.3km/h 81% 0in /  0.0mm 213 W/m2
09:29 61.7 °F /  16.5 °C 55.8 °F /  13.2 °C 30in /  1014.2hPa East 2.9mph /  4.7km/h 8mph /  12.9km/h 81% 0in /  0.0mm 229 W/m2
09:34 61.9 °F /  16.6 °C 55.9 °F /  13.3 °C 30in /  1014.2hPa NNW 4mph /  6.4km/h 6mph /  9.7km/h 81% 0in /  0.0mm 229 W/m2
09:39 62.1 °F /  16.7 °C 55.8 °F /  13.2 °C 30in /  1014.2hPa West 2mph /  3.2km/h 8mph /  12.9km/h 80% 0in /  0.0mm 230 W/m2
09:44 62.1 °F /  16.7 °C 55.8 °F /  13.2 °C 30in /  1014.6hPa ESE 0.9mph /  1.4km/h 7mph /  11.3km/h 80% 0in /  0.0mm 241 W/m2
09:49 62.1 °F /  16.7 °C 56.1 °F /  13.4 °C 30in /  1014.2hPa NW 2mph /  3.2km/h 8mph /  12.9km/h 81% 0in /  0.0mm 239 W/m2
09:54 62.2 °F /  16.8 °C 56.3 °F /  13.5 °C 30in /  1014.2hPa WNW 0.9mph /  1.4km/h 7mph /  11.3km/h 81% 0in /  0.0mm 243 W/m2
09:59 62.4 °F /  16.9 °C 56.1 °F /  13.4 °C 30in /  1014.2hPa Calm   8mph /  12.9km/h 80% 0in /  0.0mm 267 W/m2
10:04 62.6 °F /  17 °C 56.3 °F /  13.5 °C 30in /  1014.6hPa WNW 2mph /  3.2km/h 5mph /  8km/h 80% 0in /  0.0mm 258 W/m2
10:09 63 °F /  17.2 °C 56.3 °F /  13.5 °C 30in /  1014.2hPa NW 0.9mph /  1.4km/h 6mph /  9.7km/h 79% 0in /  0.0mm 267 W/m2
10:14 63 °F /  17.2 °C 56.3 °F /  13.5 °C 30in /  1014.2hPa West 2mph /  3.2km/h 3mph /  4.8km/h 79% 0in /  0.0mm 283 W/m2
10:19 63 °F /  17.2 °C 56.3 °F /  13.5 °C 30in /  1014.2hPa NW 2mph /  3.2km/h 4mph /  6.4km/h 79% 0in /  0.0mm 271 W/m2
10:24 63.1 °F /  17.3 °C 56.5 °F /  13.6 °C 30in /  1014.2hPa NW 4mph /  6.4km/h 9mph /  14.5km/h 79% 0in /  0.0mm 287 W/m2
10:29 63 °F /  17.2 °C 56.3 °F /  13.5 °C 30in /  1014.2hPa NW 2.9mph /  4.7km/h 7mph /  11.3km/h 79% 0in /  0.0mm 338 W/m2
10:34 63.1 °F /  17.3 °C 56.1 °F /  13.4 °C 30in /  1014.2hPa WSW 4mph /  6.4km/h 9mph /  14.5km/h 78% 0in /  0.0mm 295 W/m2
10:39 63.3 °F /  17.4 °C 56.3 °F /  13.5 °C 30in /  1014.6hPa NNE 2mph /  3.2km/h 10mph /  16.1km/h 78% 0in /  0.0mm 294 W/m2
10:44 63.3 °F /  17.4 °C 56.3 °F /  13.5 °C 30in /  1014.2hPa WNW 2mph /  3.2km/h 6mph /  9.7km/h 78% 0in /  0.0mm 371 W/m2
10:49 63.7 °F /  17.6 °C 56.7 °F /  13.7 °C 30in /  1014.2hPa SW 0.9mph /  1.4km/h 10mph /  16.1km/h 78% 0in /  0.0mm 439 W/m2
10:54 64 °F /  17.8 °C 56.3 °F /  13.5 °C 30in /  1014.2hPa NNW 2mph /  3.2km/h 7mph /  11.3km/h 76% 0in /  0.0mm 341 W/m2
10:59 64.6 °F /  18.1 °C 56.8 °F /  13.8 °C 30in /  1014.2hPa NW 2.9mph /  4.7km/h 5mph /  8km/h 76% 0in /  0.0mm 445 W/m2
11:04 64.6 °F /  18.1 °C 56.5 °F /  13.6 °C 30in /  1014.2hPa WNW 2.9mph /  4.7km/h 5mph /  8km/h 75% 0in /  0.0mm 292 W/m2
11:09 64.8 °F /  18.2 °C 56.7 °F /  13.7 °C 30in /  1014.2hPa WNW 0.9mph /  1.4km/h 6mph /  9.7km/h 75% 0in /  0.0mm 297 W/m2
11:14 64.9 °F /  18.3 °C 57.2 °F /  14 °C 30in /  1014.2hPa WNW 2.9mph /  4.7km/h 4mph /  6.4km/h 76% 0in /  0.0mm 350 W/m2
11:19 65.5 °F /  18.6 °C 57 °F /  13.9 °C 30in /  1014.2hPa NE 2mph /  3.2km/h 4mph /  6.4km/h 74% 0in /  0.0mm 276 W/m2
11:24 65.1 °F /  18.4 °C 56.3 °F /  13.5 °C 30in /  1014.2hPa West 6mph /  9.7km/h 10mph /  16.1km/h 73% 0in /  0.0mm 302 W/m2
11:29 65.1 °F /  18.4 °C 56.3 °F /  13.5 °C 30in /  1014.2hPa NNW 2mph /  3.2km/h 6mph /  9.7km/h 73% 0in /  0.0mm 438 W/m2
11:34 65.7 °F /  18.7 °C 55.9 °F /  13.3 °C 30in /  1014.2hPa WNW 4.9mph /  7.9km/h 9mph /  14.5km/h 71% 0in /  0.0mm 1002 W/m2
11:54 66.4 °F /  19.1 °C 55.6 °F /  13.1 °C 30in /  1014.2hPa NW 0.9mph /  1.4km/h 9mph /  14.5km/h 68% 0in /  0.0mm 338 W/m2
11:59 66 °F /  18.9 °C 55.2 °F /  12.9 °C 30in /  1014.2hPa NW 0.9mph /  1.4km/h 10mph /  16.1km/h 68% 0in /  0.0mm 241 W/m2
12:04 65.8 °F /  18.8 °C 55 °F /  12.8 °C 30in /  1014.2hPa NW 2.9mph /  4.7km/h 6mph /  9.7km/h 68% 0in /  0.0mm 218 W/m2
12:09 65.7 °F /  18.7 °C 55.2 °F /  12.9 °C 30in /  1014.2hPa NW 4.9mph /  7.9km/h 8mph /  12.9km/h 69% 0in /  0.0mm 216 W/m2
12:14 65.5 °F /  18.6 °C 55 °F /  12.8 °C 30in /  1014.2hPa WSW 2.9mph /  4.7km/h 8mph /  12.9km/h 69% 0in /  0.0mm 200 W/m2
12:19 65.1 °F /  18.4 °C 55 °F /  12.8 °C 30in /  1014.2hPa North 2mph /  3.2km/h 9mph /  14.5km/h 70% 0in /  0.0mm 167 W/m2
12:24 65.1 °F /  18.4 °C 55 °F /  12.8 °C 30in /  1014.2hPa WNW 0.9mph /  1.4km/h 4mph /  6.4km/h 70% 0in /  0.0mm 269 W/m2
12:29 65.8 °F /  18.8 °C 55.8 °F /  13.2 °C 29.9in /  1013.9hPa North 0.9mph /  1.4km/h 9mph /  14.5km/h 70% 0in /  0.0mm 991 W/m2
12:34 66.7 °F /  19.3 °C 55.8 °F /  13.2 °C 30in /  1014.2hPa WNW 0.9mph /  1.4km/h 6mph /  9.7km/h 68% 0in /  0.0mm 408 W/m2
12:39 67.5 °F /  19.7 °C 55.8 °F /  13.2 °C 29.9in /  1013.9hPa WNW 2.9mph /  4.7km/h 7mph /  11.3km/h 66% 0in /  0.0mm 471 W/m2
12:44 67.8 °F /  19.9 °C 55.6 °F /  13.1 °C 29.9in /  1013.9hPa ENE 4mph /  6.4km/h 6mph /  9.7km/h 65% 0in /  0.0mm 969 W/m2
12:49 68.4 °F /  20.2 °C 55.2 °F /  12.9 °C 29.9in /  1013.9hPa WNW 2.9mph /  4.7km/h 6mph /  9.7km/h 63% 0in /  0.0mm 281 W/m2
12:54 68.2 °F /  20.1 °C 54.7 °F /  12.6 °C 30in /  1014.2hPa WNW 4mph /  6.4km/h 7mph /  11.3km/h 62% 0in /  0.0mm 269 W/m2
12:59 67.5 °F /  19.7 °C 54.9 °F /  12.7 °C 30in /  1014.2hPa WNW 0.9mph /  1.4km/h 7mph /  11.3km/h 64% 0in /  0.0mm 243 W/m2
13:19 68.7 °F /  20.4 °C 55.2 °F /  12.9 °C 29.9in /  1013.9hPa WSW 4.9mph /  7.9km/h 6mph /  9.7km/h 62% 0in /  0.0mm 404 W/m2
13:24 68.5 °F /  20.3 °C 55 °F /  12.8 °C 29.9in /  1013.9hPa WNW 2.9mph /  4.7km/h 12mph /  19.3km/h 62% 0in /  0.0mm 396 W/m2
13:29 68.5 °F /  20.3 °C 55 °F /  12.8 °C 29.9in /  1013.9hPa NNW 4mph /  6.4km/h 10mph /  16.1km/h 62% 0in /  0.0mm 336 W/m2
13:34 68.7 °F /  20.4 °C 56.5 °F /  13.6 °C 29.9in /  1013.9hPa NW 4mph /  6.4km/h 4mph /  6.4km/h 65% 0in /  0.0mm 1099 W/m2
13:39 69.4 °F /  20.8 °C 54.9 °F /  12.7 °C 29.9in /  1013.5hPa WSW 4mph /  6.4km/h 6mph /  9.7km/h 60% 0in /  0.0mm 332 W/m2
13:44 69.8 °F /  21 °C 55.8 °F /  13.2 °C 29.9in /  1013.5hPa West 4mph /  6.4km/h 4mph /  6.4km/h 61% 0in /  0.0mm 1192 W/m2
13:49 70 °F /  21.1 °C 54 °F /  12.2 °C 29.9in /  1013.5hPa NW 2.9mph /  4.7km/h 7mph /  11.3km/h 57% 0in /  0.0mm 457 W/m2
13:54 69.6 °F /  20.9 °C 54.1 °F /  12.3 °C 29.9in /  1013.5hPa NNW 0.9mph /  1.4km/h 7mph /  11.3km/h 58% 0in /  0.0mm 343 W/m2
13:59 69.4 °F /  20.8 °C 54.5 °F /  12.5 °C 29.9in /  1013.5hPa West 4mph /  6.4km/h 6mph /  9.7km/h 59% 0in /  0.0mm 336 W/m2
14:04 69.3 °F /  20.7 °C 54.3 °F /  12.4 °C 29.9in /  1013.9hPa West 4mph /  6.4km/h 6mph /  9.7km/h 59% 0in /  0.0mm 221 W/m2
14:09 69.3 °F /  20.7 °C 54.3 °F /  12.4 °C 29.9in /  1013.5hPa West 6mph /  9.7km/h 9mph /  14.5km/h 59% 0in /  0.0mm 1071 W/m2
14:26 69.3 °F /  20.7 °C 53.8 °F /  12.1 °C 29.9in /  1013.5hPa Calm   6mph /  9.7km/h 58% 0in /  0.0mm 227 W/m2
14:31 70 °F /  21.1 °C 54.5 °F /  12.5 °C 29.9in /  1013.9hPa NNW 2mph /  3.2km/h 6mph /  9.7km/h 58% 0in /  0.0mm 1027 W/m2
14:36 70.7 °F /  21.5 °C 53.8 °F /  12.1 °C 29.9in /  1013.5hPa West 8.1mph /  13km/h 8mph /  12.9km/h 55% 0in /  0.0mm 1062 W/m2
14:41 71.2 °F /  21.8 °C 54.7 °F /  12.6 °C 29.9in /  1013.5hPa West 8.1mph /  13km/h 12mph /  19.3km/h 56% 0in /  0.0mm 1116 W/m2
14:46 71.4 °F /  21.9 °C 54.5 °F /  12.5 °C 29.9in /  1013.5hPa West 4mph /  6.4km/h 8mph /  12.9km/h 55% 0in /  0.0mm 570 W/m2
14:51 70.9 °F /  21.6 °C 52.9 °F /  11.6 °C 29.9in /  1013.5hPa WNW 2.9mph /  4.7km/h 9mph /  14.5km/h 53% 0in /  0.0mm 285 W/m2
14:56 70.2 °F /  21.2 °C 52.7 °F /  11.5 °C 29.9in /  1013.5hPa West 4mph /  6.4km/h 15mph /  24.1km/h 54% 0in /  0.0mm 341 W/m2
15:01 70 °F /  21.1 °C 53.6 °F /  12 °C 29.9in /  1013.5hPa West 8.1mph /  13km/h 8mph /  12.9km/h 56% 0in /  0.0mm 304 W/m2
15:06 69.8 °F /  21 °C 54.3 °F /  12.4 °C 29.9in /  1013.5hPa SW 0.9mph /  1.4km/h 15mph /  24.1km/h 58% 0in /  0.0mm 366 W/m2
15:11 70.2 °F /  21.2 °C 54.1 °F /  12.3 °C 29.9in /  1013.5hPa NW 2.9mph /  4.7km/h 5mph /  8km/h 57% 0in /  0.0mm 1041 W/m2
15:16 71.1 °F /  21.7 °C 54.1 °F /  12.3 °C 29.9in /  1013.5hPa NE 6.9mph /  11.1km/h 9mph /  14.5km/h 55% 0in /  0.0mm 1060 W/m2
15:21 71.1 °F /  21.7 °C 54.5 °F /  12.5 °C 29.9in /  1013.5hPa NNE 2mph /  3.2km/h 9mph /  14.5km/h 56% 0in /  0.0mm 1063 W/m2
15:26 71.2 °F /  21.8 °C 54.3 °F /  12.4 °C 29.9in /  1013.2hPa NW 2.9mph /  4.7km/h 7mph /  11.3km/h 55% 0in /  0.0mm 984 W/m2
15:31 71.4 °F /  21.9 °C 54.5 °F /  12.5 °C 29.9in /  1013.5hPa SSW 4.9mph /  7.9km/h 9mph /  14.5km/h 55% 0in /  0.0mm 315 W/m2
15:36 71.1 °F /  21.7 °C 54.5 °F /  12.5 °C 29.9in /  1013.5hPa NW 6mph /  9.7km/h 10mph /  16.1km/h 56% 0in /  0.0mm 304 W/m2
15:41 70.9 °F /  21.6 °C 54.3 °F /  12.4 °C 29.9in /  1013.5hPa WNW 2.9mph /  4.7km/h 9mph /  14.5km/h 56% 0in /  0.0mm 267 W/m2
15:46 71.1 °F /  21.7 °C 55 °F /  12.8 °C 29.9in /  1013.2hPa West 2.9mph /  4.7km/h 10mph /  16.1km/h 57% 0in /  0.0mm 722 W/m2
15:51 71.2 °F /  21.8 °C 54.7 °F /  12.6 °C 29.9in /  1013.2hPa NW 2mph /  3.2km/h 6mph /  9.7km/h 56% 0in /  0.0mm 1000 W/m2
15:56 71.6 °F /  22 °C 55 °F /  12.8 °C 29.9in /  1013.2hPa Calm   10mph /  16.1km/h 56% 0in /  0.0mm 216 W/m2
16:01 71.6 °F /  22 °C 55.6 °F /  13.1 °C 29.9in /  1013.2hPa NW 4mph /  6.4km/h 7mph /  11.3km/h 57% 0in /  0.0mm 301 W/m2
16:21 71.4 °F /  21.9 °C 54.5 °F /  12.5 °C 29.9in /  1013.2hPa WNW 0.9mph /  1.4km/h 7mph /  11.3km/h 55% 0in /  0.0mm 264 W/m2
16:26 71.2 °F /  21.8 °C 54.3 °F /  12.4 °C 29.9in /  1013.2hPa West 2mph /  3.2km/h 9mph /  14.5km/h 55% 0in /  0.0mm 295 W/m2
16:31 71.1 °F /  21.7 °C 54.1 °F /  12.3 °C 29.9in /  1013.2hPa North 2mph /  3.2km/h 3mph /  4.8km/h 55% 0in /  0.0mm 364 W/m2
16:36 71.6 °F /  22 °C 55.6 °F /  13.1 °C 29.9in /  1013.2hPa WNW 2.9mph /  4.7km/h 7mph /  11.3km/h 57% 0in /  0.0mm 364 W/m2
16:41 72 °F /  22.2 °C 55.4 °F /  13 °C 29.9in /  1012.9hPa WNW 2mph /  3.2km/h 9mph /  14.5km/h 56% 0in /  0.0mm 795 W/m2
16:46 72.1 °F /  22.3 °C 55.6 °F /  13.1 °C 29.9in /  1012.9hPa West 6.9mph /  11.1km/h 8mph /  12.9km/h 56% 0in /  0.0mm 371 W/m2
16:51 71.2 °F /  21.8 °C 54.3 °F /  12.4 °C 29.9in /  1012.9hPa NW 2mph /  3.2km/h 11mph /  17.7km/h 55% 0in /  0.0mm 216 W/m2
16:56 71.1 °F /  21.7 °C 54.5 °F /  12.5 °C 29.9in /  1012.9hPa West 2.9mph /  4.7km/h 6mph /  9.7km/h 56% 0in /  0.0mm 742 W/m2
17:01 71.2 °F /  21.8 °C 54.7 °F /  12.6 °C 29.9in /  1012.9hPa WSW 4.9mph /  7.9km/h 11mph /  17.7km/h 56% 0in /  0.0mm 661 W/m2
17:06 71.6 °F /  22 °C 55 °F /  12.8 °C 29.9in /  1012.9hPa West 2mph /  3.2km/h 9mph /  14.5km/h 56% 0in /  0.0mm 659 W/m2
17:11 72 °F /  22.2 °C 54.3 °F /  12.4 °C 29.9in /  1012.9hPa WNW 4mph /  6.4km/h 12mph /  19.3km/h 54% 0in /  0.0mm 647 W/m2
17:16 72.1 °F /  22.3 °C 55 °F /  12.8 °C 29.9in /  1012.9hPa West 2.9mph /  4.7km/h 3mph /  4.8km/h 55% 0in /  0.0mm 677 W/m2
17:21 72.7 °F /  22.6 °C 55 °F /  12.8 °C 29.9in /  1012.9hPa WNW 8.9mph /  14.3km/h 11mph /  17.7km/h 54% 0in /  0.0mm 631 W/m2
17:26 72.7 °F /  22.6 °C 54.5 °F /  12.5 °C 29.9in /  1012.9hPa West 2.9mph /  4.7km/h 7mph /  11.3km/h 53% 0in /  0.0mm 601 W/m2
17:31 72.7 °F /  22.6 °C 54.5 °F /  12.5 °C 29.9in /  1012.9hPa WNW 8.1mph /  13km/h 13mph /  20.9km/h 53% 0in /  0.0mm 642 W/m2
17:36 72 °F /  22.2 °C 54 °F /  12.2 °C 29.9in /  1012.5hPa NW 0.9mph /  1.4km/h 7mph /  11.3km/h 53% 0in /  0.0mm 642 W/m2
17:41 72 °F /  22.2 °C 54.3 °F /  12.4 °C 29.9in /  1012.5hPa NNW 2.9mph /  4.7km/h 5mph /  8km/h 54% 0in /  0.0mm 619 W/m2
17:46 72.1 °F /  22.3 °C 54.1 °F /  12.3 °C 29.9in /  1012.5hPa West 4mph /  6.4km/h 8mph /  12.9km/h 53% 0in /  0.0mm 575 W/m2
17:51 72.3 °F /  22.4 °C 53.8 °F /  12.1 °C 29.9in /  1012.5hPa West 4mph /  6.4km/h 7mph /  11.3km/h 52% 0in /  0.0mm 580 W/m2
18:12 71.8 °F /  22.1 °C 54.3 °F /  12.4 °C 29.9in /  1012.5hPa NW 2.9mph /  4.7km/h 4mph /  6.4km/h 54% 0in /  0.0mm 271 W/m2
18:17 72 °F /  22.2 °C 54 °F /  12.2 °C 29.9in /  1012.5hPa NW 4.9mph /  7.9km/h 7mph /  11.3km/h 53% 0in /  0.0mm 360 W/m2
18:22 71.8 °F /  22.1 °C 54.3 °F /  12.4 °C 29.9in /  1012.5hPa SW 2.9mph /  4.7km/h 9mph /  14.5km/h 54% 0in /  0.0mm 512 W/m2
18:27 71.6 °F /  22 °C 54.1 °F /  12.3 °C 29.9in /  1012.5hPa NW 0.9mph /  1.4km/h 7mph /  11.3km/h 54% 0in /  0.0mm 427 W/m2
18:32 71.8 °F /  22.1 °C 53.8 °F /  12.1 °C 29.9in /  1012.5hPa WSW 4mph /  6.4km/h 8mph /  12.9km/h 53% 0in /  0.0mm 84 W/m2
18:49 70.9 °F /  21.6 °C 54 °F /  12.2 °C 29.9in /  1012.2hPa WNW 2.9mph /  4.7km/h 4mph /  6.4km/h 55% 0in /  0.0mm 111 W/m2
18:54 70.5 °F /  21.4 °C 55 °F /  12.8 °C 29.9in /  1012.2hPa NW 2mph /  3.2km/h 2mph /  3.2km/h 58% 0in /  0.0mm 114 W/m2
18:59 70.5 °F /  21.4 °C 55.6 °F /  13.1 °C 29.9in /  1012.2hPa WNW 0.9mph /  1.4km/h 2mph /  3.2km/h 59% 0in /  0.0mm 156 W/m2
19:15 70.7 °F /  21.5 °C 54.7 °F /  12.6 °C 29.9in /  1012.2hPa West 2.9mph /  4.7km/h 5mph /  8km/h 57% 0in /  0.0mm 225 W/m2
19:20 71.1 °F /  21.7 °C 54.1 °F /  12.3 °C 29.9in /  1012.2hPa WSW 2.9mph /  4.7km/h 3mph /  4.8km/h 55% 0in /  0.0mm 160 W/m2
19:25 71.1 °F /  21.7 °C 55 °F /  12.8 °C 29.9in /  1012.2hPa WNW 0.9mph /  1.4km/h 5mph /  8km/h 57% 0in /  0.0mm 207 W/m2
19:30 71.2 °F /  21.8 °C 54.7 °F /  12.6 °C 29.9in /  1012.2hPa Calm   3mph /  4.8km/h 56% 0in /  0.0mm 151 W/m2
19:35 71.2 °F /  21.8 °C 54.3 °F /  12.4 °C 29.9in /  1012.2hPa NW 2.9mph /  4.7km/h 3mph /  4.8km/h 55% 0in /  0.0mm 178 W/m2
19:40 71.1 °F /  21.7 °C 54.5 °F /  12.5 °C 29.9in /  1012.2hPa NW 0.9mph /  1.4km/h 3mph /  4.8km/h 56% 0in /  0.0mm 113 W/m2
19:45 70.9 °F /  21.6 °C 54.9 °F /  12.7 °C 29.9in /  1012.2hPa Calm   2mph /  3.2km/h 57% 0in /  0.0mm 83 W/m2
19:50 70.5 °F /  21.4 °C 54.1 °F /  12.3 °C 29.9in /  1012.2hPa Calm   2mph /  3.2km/h 56% 0in /  0.0mm 86 W/m2
19:55 70.2 °F /  21.2 °C 56.1 °F /  13.4 °C 29.9in /  1012.2hPa Calm     61% 0in /  0.0mm 47 W/m2
20:00 69.8 °F /  21 °C 57 °F /  13.9 °C 29.9in /  1012.2hPa Calm   1mph /  1.6km/h 64% 0in /  0.0mm 32 W/m2
20:05 69.3 °F /  20.7 °C 57 °F /  13.9 °C 29.9in /  1012.2hPa Calm   1mph /  1.6km/h 65% 0in /  0.0mm 30 W/m2
20:10 68.7 °F /  20.4 °C 56.8 °F /  13.8 °C 29.9in /  1012.2hPa Calm     66% 0in /  0.0mm 33 W/m2
20:16 68.4 °F /  20.2 °C 57.4 °F /  14.1 °C 29.9in /  1012.2hPa Calm   1mph /  1.6km/h 68% 0in /  0.0mm 35 W/m2
20:34 67.3 °F /  19.6 °C 57.2 °F /  14 °C 29.9in /  1012.2hPa NW 0.9mph /  1.4km/h 1mph /  1.6km/h 70% 0in /  0.0mm 39 W/m2
20:39 66.9 °F /  19.4 °C 56.8 °F /  13.8 °C 29.9in /  1012.2hPa NW 0.9mph /  1.4km/h 1mph /  1.6km/h 70% 0in /  0.0mm 30 W/m2
20:44 66.6 °F /  19.2 °C 56.5 °F /  13.6 °C 29.9in /  1012.2hPa Calm     70% 0in /  0.0mm 28 W/m2
20:49 66.4 °F /  19.1 °C 56.7 °F /  13.7 °C 29.9in /  1012.2hPa NW 1mph /  1.6km/h 1mph /  1.6km/h 71% 0in /  0.0mm 23 W/m2
20:54 65.8 °F /  18.8 °C 55.8 °F /  13.2 °C 29.9in /  1012.2hPa Calm     70% 0in /  0.0mm 19 W/m2
20:59 65.7 °F /  18.7 °C 55.9 °F /  13.3 °C 29.9in /  1012.2hPa Calm     71% 0in /  0.0mm 12 W/m2
21:04 65.1 °F /  18.4 °C 55.9 °F /  13.3 °C 29.9in /  1012.2hPa Calm     72% 0in /  0.0mm 9 W/m2
21:25 63.7 °F /  17.6 °C 55.6 °F /  13.1 °C 29.9in /  1012.2hPa NW 0.9mph /  1.4km/h 2mph /  3.2km/h 75% 0in /  0.0mm 0 W/m2
21:30 63.3 °F /  17.4 °C 54.9 °F /  12.7 °C 29.9in /  1012.2hPa WNW 0.9mph /  1.4km/h 1mph /  1.6km/h 74% 0in /  0.0mm 0 W/m2
21:35 63 °F /  17.2 °C 54.9 °F /  12.7 °C 29.9in /  1012.2hPa Calm   1mph /  1.6km/h 75% 0in /  0.0mm 0 W/m2
21:40 62.8 °F /  17.1 °C 55 °F /  12.8 °C 29.9in /  1012.2hPa WNW 0.9mph /  1.4km/h 2mph /  3.2km/h 76% 0in /  0.0mm 0 W/m2
21:45 62.4 °F /  16.9 °C 54.7 °F /  12.6 °C 29.9in /  1012.2hPa Calm   1mph /  1.6km/h 76% 0in /  0.0mm 0 W/m2
22:01 62.1 °F /  16.7 °C 54.7 °F /  12.6 °C 29.9in /  1012.5hPa Calm     77% 0in /  0.0mm 0 W/m2
22:06 61.9 °F /  16.6 °C 54.9 °F /  12.7 °C 29.9in /  1012.5hPa Calm     78% 0in /  0.0mm 0 W/m2
22:11 61.9 °F /  16.6 °C 54.9 °F /  12.7 °C 29.9in /  1012.5hPa Calm     78% 0in /  0.0mm 0 W/m2
22:31 61.5 °F /  16.4 °C 54.9 °F /  12.7 °C 29.9in /  1012.5hPa Calm     79% 0in /  0.0mm 0 W/m2
22:36 61.3 °F /  16.3 °C 54.9 °F /  12.7 °C 29.9in /  1012.5hPa SW 0.9mph /  1.4km/h 1mph /  1.6km/h 79% 0in /  0.0mm 0 W/m2
22:41 61.3 °F /  16.3 °C 54.9 °F /  12.7 °C 29.9in /  1012.5hPa Calm   1mph /  1.6km/h 79% 0in /  0.0mm 0 W/m2
22:46 61.2 °F /  16.2 °C 54.9 °F /  12.7 °C 29.9in /  1012.2hPa Calm     80% 0in /  0.0mm 0 W/m2
22:51 61 °F /  16.1 °C 54.7 °F /  12.6 °C 29.9in /  1012.2hPa Calm     80% 0in /  0.0mm 0 W/m2
22:56 61 °F /  16.1 °C 54.7 °F /  12.6 °C 29.9in /  1012.2hPa Calm     80% 0in /  0.0mm 0 W/m2
23:01 60.8 °F /  16 °C 54.9 °F /  12.7 °C 29.9in /  1012.2hPa Calm     81% 0in /  0.0mm 0 W/m2
23:06 60.6 °F /  15.9 °C 54.7 °F /  12.6 °C 29.9in /  1012.2hPa Calm     81% 0in /  0.0mm 0 W/m2
23:11 60.4 °F /  15.8 °C 54.5 °F /  12.5 °C 29.9in /  1012.2hPa Calm     81% 0in /  0.0mm 0 W/m2
23:16 60.3 °F /  15.7 °C 54.7 °F /  12.6 °C 29.9in /  1012.2hPa Calm     82% 0in /  0.0mm 0 W/m2
23:21 60.1 °F /  15.6 °C 54.9 °F /  12.7 °C 29.9in /  1012.2hPa Calm     83% 0in /  0.0mm 0 W/m2
23:26 59.7 °F /  15.4 °C 54.5 °F /  12.5 °C 29.9in /  1012.2hPa Calm     83% 0in /  0.0mm 0 W/m2
23:31 59.5 °F /  15.3 °C 54.3 °F /  12.4 °C 29.9in /  1012.2hPa Calm     83% 0in /  0.0mm 0 W/m2
23:36 59.4 °F /  15.2 °C 54.1 °F /  12.3 °C 29.9in /  1012.2hPa Calm     83% 0in /  0.0mm 0 W/m2
23:41 59.2 °F /  15.1 °C 54.3 °F /  12.4 °C 29.9in /  1011.9hPa Calm     84% 0in /  0.0mm 0 W/m2
23:46 59.2 °F /  15.1 °C 54.3 °F /  12.4 °C 29.9in /  1011.9hPa Calm     84% 0in /  0.0mm 0 W/m2
23:51 58.8 °F /  14.9 °C 54 °F /  12.2 °C 29.9in /  1011.9hPa Calm     84% 0in /  0.0mm 0 W/m2
23:56 58.8 °F /  14.9 °C 54 °F /  12.2 °C 29.9in /  1011.9hPa Calm     84% 0in /  0.0mm 0 W/m2
Juneau County Weather
Compliments of Weather Underground - 4 mb